Pacific Palisades, California
Current Conditions -  °F | °C
As of 2:51 AM on Wednesday 26 Nov 2014 (Local Time) from KSMO Reporting Station
Clear Clear  
Wind Chill: 54°   Ceiling: Unl
Heat Index: 54°   Visibility: 10mi
Dew Point: 33°   Wind: 5mph
Humidity: 45%   Direction: 30°NNE
Pressure: 30.23"   Gusts: NA
Location:  34.05°N, 118.53°W
Report Text: KSMO 261051Z 03004KT 10SM CLR 12/01 A3023 RMK AO2 SLP236 T01220006
Loading
Personal Weather Stations






























Interactive Weather Map New forecast layout! Learn more

10-Day Weather Forecast

Advertisements
Track Severe Weather on mobile